createdAt,value
2018-06-11T00:00:36.017Z,14.82
2018-06-11T00:03:03.750Z,14.82
2018-06-11T00:05:31.169Z,14.79
2018-06-11T00:07:58.727Z,14.74
2018-06-11T00:10:26.125Z,14.74
2018-06-11T00:12:54.145Z,14.77
2018-06-11T00:15:21.581Z,14.77
2018-06-11T00:17:49.013Z,14.70
2018-06-11T00:20:16.470Z,14.71
2018-06-11T00:22:44.080Z,14.65
2018-06-11T00:25:11.606Z,14.54
2018-06-11T00:27:39.769Z,14.62
2018-06-11T00:30:07.199Z,14.57
2018-06-11T00:32:34.790Z,14.52
2018-06-11T00:35:02.315Z,14.45
2018-06-11T00:37:29.729Z,14.56
2018-06-11T00:39:57.274Z,14.44
2018-06-11T00:42:24.822Z,14.57
2018-06-11T00:44:52.269Z,14.51
2018-06-11T00:47:19.665Z,14.31
2018-06-11T00:49:48.094Z,14.39
2018-06-11T00:52:15.454Z,14.28
2018-06-11T00:54:42.886Z,14.30
2018-06-11T00:57:10.355Z,14.43
2018-06-11T00:59:37.925Z,14.28
2018-06-11T01:02:05.442Z,14.42
2018-06-11T01:04:32.854Z,14.34
2018-06-11T01:07:00.338Z,14.22
2018-06-11T01:09:27.784Z,14.28
2018-06-11T01:11:55.251Z,14.28
2018-06-11T01:14:22.794Z,14.25
2018-06-11T01:16:50.192Z,14.27
2018-06-11T01:19:17.750Z,14.33
2018-06-11T01:21:45.183Z,14.07
2018-06-11T01:24:12.602Z,14.19
2018-06-11T01:26:40.002Z,14.14
2018-06-11T01:29:07.410Z,14.22
2018-06-11T01:31:35.509Z,14.26
2018-06-11T01:34:02.918Z,14.19
2018-06-11T01:36:30.268Z,14.23
2018-06-11T01:38:57.688Z,14.22
2018-06-11T01:41:25.114Z,14.19
2018-06-11T01:43:53.174Z,14.12
2018-06-11T01:46:20.656Z,14.18
2018-06-11T01:48:48.299Z,14.16
2018-06-11T01:51:16.325Z,13.91
2018-06-11T01:53:43.797Z,14.00
2018-06-11T01:56:11.232Z,14.02
2018-06-11T01:58:38.621Z,13.98
2018-06-11T02:01:06.137Z,13.97
2018-06-11T02:03:33.637Z,13.85
2018-06-11T02:06:01.028Z,13.91
2018-06-11T02:08:28.408Z,13.94
2018-06-11T02:10:56.580Z,13.82
2018-06-11T02:13:24.751Z,13.81
2018-06-11T02:15:52.154Z,13.79
2018-06-11T02:18:19.621Z,13.78
2018-06-11T02:20:46.996Z,13.83
2018-06-11T02:23:14.512Z,13.73
2018-06-11T02:25:42.160Z,13.81
2018-06-11T02:28:09.557Z,13.76
2018-06-11T02:30:36.994Z,13.86
2018-06-11T02:33:04.395Z,13.79
2018-06-11T02:35:31.961Z,13.88
2018-06-11T02:37:59.591Z,14.02
2018-06-11T02:40:27.142Z,14.09
2018-06-11T02:42:54.672Z,14.18
2018-06-11T02:45:22.320Z,14.21
2018-06-11T02:47:49.826Z,14.21
2018-06-11T02:50:17.889Z,14.18
2018-06-11T02:52:45.354Z,14.23
2018-06-11T02:55:12.729Z,14.24
2018-06-11T02:57:40.221Z,14.20
2018-06-11T03:00:07.663Z,14.14
2018-06-11T03:02:35.091Z,14.12
2018-06-11T03:05:03.141Z,14.20
2018-06-11T03:07:30.509Z,14.21
2018-06-11T03:09:57.977Z,14.21
2018-06-11T03:12:25.471Z,14.14
2018-06-11T03:14:52.921Z,14.06
2018-06-11T03:17:20.368Z,14.06
2018-06-11T03:19:48.021Z,14.10
2018-06-11T03:22:15.656Z,13.98
2018-06-11T03:24:43.097Z,14.02
2018-06-11T03:27:11.262Z,14.01
2018-06-11T03:29:38.702Z,13.87
2018-06-11T03:32:06.218Z,13.99
2018-06-11T03:34:33.628Z,14.04
2018-06-11T03:37:01.093Z,13.90
2018-06-11T03:39:28.579Z,14.05
2018-06-11T03:41:55.949Z,14.08
2018-06-11T03:44:23.590Z,14.06
2018-06-11T03:46:51.071Z,14.15
2018-06-11T03:49:18.460Z,14.10
2018-06-11T03:51:45.877Z,14.09
2018-06-11T03:54:13.695Z,14.12
2018-06-11T03:56:41.173Z,14.14
2018-06-11T03:59:08.593Z,14.19
2018-06-11T04:01:36.052Z,14.11
2018-06-11T04:04:03.510Z,14.17
2018-06-11T04:06:30.984Z,14.22
2018-06-11T04:08:58.328Z,14.26
2018-06-11T04:11:25.765Z,14.35
2018-06-11T04:13:53.207Z,14.37
2018-06-11T04:16:20.673Z,14.38
2018-06-11T04:18:48.357Z,14.32
2018-06-11T04:21:16.485Z,14.41
2018-06-11T04:23:43.921Z,14.43
2018-06-11T04:26:11.351Z,14.38
2018-06-11T04:28:38.754Z,14.37
2018-06-11T04:31:06.264Z,14.40
2018-06-11T04:33:33.673Z,14.46
2018-06-11T04:36:01.105Z,14.43
2018-06-11T04:38:28.479Z,14.42
2018-06-11T04:40:55.888Z,14.35
2018-06-11T04:43:23.277Z,14.41
2018-06-11T04:45:50.738Z,14.45
2018-06-11T04:48:18.147Z,14.43
2018-06-11T04:50:45.705Z,14.41
2018-06-11T04:53:13.199Z,14.33
2018-06-11T04:55:40.628Z,14.52
2018-06-11T04:58:08.072Z,14.55
2018-06-11T05:00:36.086Z,14.60
2018-06-11T05:03:04.106Z,14.68
2018-06-11T05:05:32.361Z,14.79
2018-06-11T05:07:59.833Z,14.86
2018-06-11T05:10:27.228Z,14.81
2018-06-11T05:12:54.741Z,14.87
2018-06-11T05:15:22.381Z,14.97
2018-06-11T05:17:50.403Z,15.08
2018-06-11T05:20:17.848Z,15.05
2018-06-11T05:22:45.237Z,15.16
2018-06-11T05:25:12.658Z,15.15
2018-06-11T05:27:40.048Z,15.13
2018-06-11T05:30:07.462Z,15.23
2018-06-11T05:32:34.897Z,15.30
2018-06-11T05:35:02.317Z,15.36
2018-06-11T05:37:29.800Z,15.48
2018-06-11T05:39:58.113Z,15.55
2018-06-11T05:42:25.506Z,15.61
2018-06-11T05:44:52.883Z,15.62
2018-06-11T05:47:20.753Z,15.67
2018-06-11T05:49:48.795Z,15.78
2018-06-11T05:52:16.315Z,15.63
2018-06-11T05:54:43.732Z,15.92
2018-06-11T05:57:11.124Z,15.94
2018-06-11T05:59:38.575Z,16.05
2018-06-11T06:02:05.999Z,16.03
2018-06-11T06:04:33.430Z,16.20
2018-06-11T06:07:00.785Z,16.32
2018-06-11T06:09:28.203Z,16.28
2018-06-11T06:11:55.622Z,16.39
2018-06-11T06:14:23.002Z,16.33
2018-06-11T06:16:51.231Z,16.51
2018-06-11T06:19:18.654Z,16.51
2018-06-11T06:21:46.089Z,16.57
2018-06-11T06:24:13.713Z,16.64
2018-06-11T06:26:42.006Z,16.60
2018-06-11T06:29:09.470Z,16.49
2018-06-11T06:31:36.917Z,16.76
2018-06-11T06:34:04.427Z,16.81
2018-06-11T06:36:31.973Z,17.13
2018-06-11T06:38:59.438Z,17.04
2018-06-11T06:41:26.859Z,17.05
2018-06-11T06:43:54.452Z,17.16
2018-06-11T06:46:22.044Z,17.41
2018-06-11T06:48:50.410Z,17.47
2018-06-11T06:51:17.865Z,17.68
2018-06-11T06:53:45.893Z,17.81
2018-06-11T06:56:13.370Z,17.95
2018-06-11T06:58:40.750Z,18.08
2018-06-11T07:01:08.218Z,17.93
2018-06-11T07:03:35.627Z,18.23
2018-06-11T07:06:03.016Z,18.03
2018-06-11T07:08:30.458Z,18.25
2018-06-11T07:10:57.945Z,18.36
2018-06-11T07:13:26.054Z,17.98
2018-06-11T07:15:53.468Z,18.22
2018-06-11T07:18:21.082Z,18.48
2018-06-11T07:20:49.133Z,18.98
2018-06-11T07:23:16.569Z,19.10
2018-06-11T07:25:44.087Z,18.96
2018-06-11T07:28:11.470Z,19.25
2018-06-11T07:30:38.957Z,19.34
2018-06-11T07:33:06.583Z,19.74
2018-06-11T07:35:34.120Z,20.08
2018-06-11T07:38:01.613Z,20.41
2018-06-11T07:40:29.105Z,20.63
2018-06-11T07:42:56.635Z,21.23
2018-06-11T07:45:24.142Z,21.35
2018-06-11T07:47:51.689Z,21.57
2018-06-11T07:50:19.195Z,21.99
2018-06-11T07:52:46.734Z,22.51
2018-06-11T07:55:14.129Z,22.70
2018-06-11T07:57:41.733Z,22.99
2018-06-11T08:00:09.259Z,23.16
2018-06-11T08:02:36.741Z,23.35
2018-06-11T08:05:04.166Z,22.53
2018-06-11T08:07:31.768Z,22.46
2018-06-11T08:09:59.361Z,22.61
2018-06-11T08:12:26.926Z,23.21
2018-06-11T08:14:54.401Z,23.91
2018-06-11T08:17:21.818Z,24.32
2018-06-11T08:19:49.340Z,25.36
2018-06-11T08:22:16.727Z,25.68
2018-06-11T08:24:44.255Z,25.72
2018-06-11T08:27:11.809Z,25.32
2018-06-11T08:29:39.442Z,26.02
2018-06-11T08:32:07.006Z,26.16
2018-06-11T08:34:34.495Z,26.36
2018-06-11T08:37:01.944Z,25.87
2018-06-11T08:39:29.459Z,26.07
2018-06-11T08:41:56.962Z,26.14
2018-06-11T08:44:24.398Z,25.92
2018-06-11T08:46:51.852Z,26.22
2018-06-11T08:49:19.238Z,26.31
2018-06-11T08:51:46.701Z,26.34
2018-06-11T08:54:14.067Z,26.34
2018-06-11T08:56:41.431Z,26.04
2018-06-11T08:59:08.898Z,26.28
2018-06-11T09:01:36.901Z,26.25
2018-06-11T09:04:04.450Z,25.87
2018-06-11T09:06:32.054Z,25.54
2018-06-11T09:09:00.428Z,25.20
2018-06-11T09:11:27.861Z,24.67
2018-06-11T09:13:55.430Z,23.70
2018-06-11T09:16:23.635Z,23.05
2018-06-11T09:18:51.144Z,23.46
2018-06-11T09:21:18.600Z,23.59
2018-06-11T09:23:46.670Z,23.44
2018-06-11T09:26:14.159Z,23.51
2018-06-11T09:28:41.707Z,23.11
2018-06-11T09:31:09.183Z,23.15
2018-06-11T09:33:36.665Z,23.42
2018-06-11T09:36:04.227Z,23.47
2018-06-11T09:38:31.774Z,23.77
2018-06-11T09:40:59.390Z,24.19
2018-06-11T09:43:27.428Z,23.78
2018-06-11T09:45:54.875Z,24.12
2018-06-11T09:48:22.386Z,24.21
2018-06-11T09:50:49.912Z,24.74
2018-06-11T09:53:17.359Z,25.37
2018-06-11T09:55:44.921Z,25.63
2018-06-11T09:58:13.025Z,26.15
2018-06-11T10:00:40.492Z,26.09
2018-06-11T10:03:08.055Z,26.17
2018-06-11T10:05:36.057Z,26.75
2018-06-11T10:08:04.451Z,27.16
2018-06-11T10:10:31.862Z,27.86
2018-06-11T10:12:59.377Z,28.72
2018-06-11T10:15:26.932Z,28.90
2018-06-11T10:17:54.327Z,28.91
2018-06-11T10:20:21.826Z,29.57
2018-06-11T10:22:49.272Z,29.45
2018-06-11T10:25:16.642Z,30.28
2018-06-11T10:27:44.053Z,30.32
2018-06-11T10:30:11.476Z,30.72
2018-06-11T10:32:38.893Z,30.71
2018-06-11T10:35:06.321Z,31.19
2018-06-11T10:37:33.810Z,31.14
2018-06-11T10:40:01.283Z,30.67
2018-06-11T10:42:28.768Z,30.31
2018-06-11T10:44:56.196Z,30.07
2018-06-11T10:47:24.506Z,30.15
2018-06-11T10:49:52.058Z,29.98
2018-06-11T10:52:19.634Z,29.28
2018-06-11T10:54:47.146Z,28.50
2018-06-11T10:57:14.646Z,28.09
2018-06-11T10:59:42.124Z,28.32
2018-06-11T11:02:09.628Z,28.40
2018-06-11T11:04:37.123Z,29.05
2018-06-11T11:07:05.135Z,30.02
2018-06-11T11:09:32.527Z,30.47
2018-06-11T11:11:59.965Z,31.34
2018-06-11T11:14:27.551Z,31.67
2018-06-11T11:16:54.934Z,31.40
2018-06-11T11:19:22.315Z,31.78
2018-06-11T11:21:49.755Z,31.15
2018-06-11T11:24:17.716Z,31.31
2018-06-11T11:26:45.201Z,30.56
2018-06-11T11:29:12.773Z,31.27
2018-06-11T11:31:40.242Z,31.45
2018-06-11T11:34:07.733Z,31.31
2018-06-11T11:36:35.170Z,31.23
2018-06-11T11:39:02.684Z,31.84
2018-06-11T11:41:30.132Z,31.53
2018-06-11T11:43:57.807Z,32.07
2018-06-11T11:46:25.269Z,32.24
2018-06-11T11:48:52.692Z,31.46
2018-06-11T11:51:20.241Z,31.63
2018-06-11T11:53:47.869Z,31.03
2018-06-11T11:56:15.910Z,31.59
2018-06-11T11:58:43.737Z,31.61
2018-06-11T12:01:11.879Z,31.25
2018-06-11T12:03:39.913Z,31.69
2018-06-11T12:06:07.502Z,31.00
2018-06-11T12:08:35.081Z,30.89
2018-06-11T12:11:03.140Z,31.55
2018-06-11T12:13:30.658Z,31.28
2018-06-11T12:15:58.118Z,31.72
2018-06-11T12:18:25.531Z,31.01
2018-06-11T12:20:53.006Z,31.26
2018-06-11T12:23:20.493Z,31.30
2018-06-11T12:25:47.924Z,31.09
2018-06-11T12:28:15.346Z,30.97
2018-06-11T12:30:42.792Z,31.09
2018-06-11T12:33:10.939Z,31.33
2018-06-11T12:35:38.363Z,30.59
2018-06-11T12:38:05.896Z,30.53
2018-06-11T12:40:33.512Z,30.83
2018-06-11T12:43:01.906Z,30.85
2018-06-11T12:45:29.458Z,30.51
2018-06-11T12:47:57.035Z,30.31
2018-06-11T12:50:24.462Z,30.72
2018-06-11T12:52:52.133Z,30.65
2018-06-11T12:55:19.530Z,30.10
2018-06-11T12:57:47.004Z,30.18
2018-06-11T13:00:14.570Z,29.87
2018-06-11T13:02:42.156Z,29.66
2018-06-11T13:05:09.729Z,29.85
2018-06-11T13:07:37.973Z,28.89
2018-06-11T13:10:05.420Z,29.31
2018-06-11T13:12:32.856Z,29.34
2018-06-11T13:15:00.539Z,29.31
2018-06-11T13:17:28.175Z,29.59
2018-06-11T13:19:55.789Z,29.53
2018-06-11T13:22:23.523Z,29.71
2018-06-11T13:24:51.345Z,29.72
2018-06-11T13:27:19.095Z,29.55
2018-06-11T13:29:46.809Z,29.23
2018-06-11T13:32:15.165Z,29.97
2018-06-11T13:34:42.819Z,30.86
2018-06-11T13:37:10.742Z,30.86
2018-06-11T13:39:38.381Z,31.07
2018-06-11T13:42:05.795Z,30.69
2018-06-11T13:44:33.402Z,30.98
2018-06-11T13:47:00.841Z,30.86
2018-06-11T13:49:28.769Z,29.83
2018-06-11T13:51:56.392Z,29.98
2018-06-11T13:54:24.025Z,29.50
2018-06-11T13:56:51.528Z,29.87
2018-06-11T13:59:19.019Z,29.99
2018-06-11T14:01:46.612Z,29.35
2018-06-11T14:04:14.010Z,30.17
2018-06-11T14:06:41.639Z,30.03
2018-06-11T14:09:09.396Z,30.07
2018-06-11T14:11:37.199Z,30.25
2018-06-11T14:14:04.626Z,30.06
2018-06-11T14:16:32.256Z,29.76
2018-06-11T14:19:00.852Z,29.93
2018-06-11T14:21:28.302Z,29.63
2018-06-11T14:23:55.828Z,29.55
2018-06-11T14:26:23.314Z,29.15
2018-06-11T14:28:50.852Z,29.62
2018-06-11T14:31:18.518Z,29.14
2018-06-11T14:33:46.142Z,28.83
2018-06-11T14:36:13.744Z,29.18
2018-06-11T14:38:41.202Z,28.87
2018-06-11T14:41:09.070Z,28.03
2018-06-11T14:43:36.717Z,28.52
2018-06-11T14:46:04.505Z,28.28
2018-06-11T14:48:32.452Z,28.06
2018-06-11T14:50:59.922Z,28.03
2018-06-11T14:53:27.839Z,28.09
2018-06-11T14:55:55.500Z,27.58
2018-06-11T14:58:23.241Z,27.04
2018-06-11T15:00:50.945Z,27.25
2018-06-11T15:03:18.896Z,27.00
2018-06-11T15:05:46.873Z,26.81
2018-06-11T15:08:14.777Z,26.77
2018-06-11T15:10:42.418Z,26.67
2018-06-11T15:13:10.101Z,26.62
2018-06-11T15:15:37.594Z,26.44
2018-06-11T15:18:05.285Z,26.22
2018-06-11T15:20:32.896Z,25.70
2018-06-11T15:23:00.406Z,25.62
2018-06-11T15:25:27.908Z,25.80
2018-06-11T15:27:55.470Z,25.90
2018-06-11T15:30:23.094Z,25.89
2018-06-11T15:32:50.780Z,25.74
2018-06-11T15:35:18.348Z,25.69
2018-06-11T15:37:45.881Z,25.64
2018-06-11T15:40:13.474Z,25.54
2018-06-11T15:42:40.971Z,25.69
2018-06-11T15:45:08.519Z,25.54
2018-06-11T15:47:36.129Z,25.78
2018-06-11T15:50:04.573Z,25.46
2018-06-11T15:52:32.208Z,25.47
2018-06-11T15:54:59.831Z,25.61
2018-06-11T15:57:27.352Z,25.51
2018-06-11T15:59:55.732Z,26.53
2018-06-11T16:02:23.329Z,27.24
2018-06-11T16:04:50.871Z,27.12
2018-06-11T16:07:18.419Z,27.20
2018-06-11T16:09:46.001Z,26.77
2018-06-11T16:12:13.593Z,26.53
2018-06-11T16:14:41.135Z,26.57
2018-06-11T16:17:08.725Z,26.18
2018-06-11T16:19:36.373Z,26.00
2018-06-11T16:22:04.249Z,25.76
2018-06-11T16:24:31.864Z,25.43
2018-06-11T16:26:59.469Z,25.49
2018-06-11T16:29:26.980Z,25.02
2018-06-11T16:31:54.549Z,25.16
2018-06-11T16:34:22.204Z,24.71
2018-06-11T16:36:49.800Z,24.69
2018-06-11T16:39:17.509Z,24.69
2018-06-11T16:41:45.295Z,24.63
2018-06-11T16:44:12.845Z,24.50
2018-06-11T16:46:40.454Z,24.37
2018-06-11T16:49:08.213Z,24.42
2018-06-11T16:51:35.736Z,24.28
2018-06-11T16:54:03.219Z,24.44
2018-06-11T16:56:31.139Z,24.24
2018-06-11T16:58:58.824Z,23.96
2018-06-11T17:01:26.508Z,23.87
2018-06-11T17:03:54.193Z,23.57
2018-06-11T17:06:21.984Z,23.45
2018-06-11T17:08:49.505Z,23.64
2018-06-11T17:11:17.216Z,23.32
2018-06-11T17:13:44.692Z,23.39
2018-06-11T17:16:12.867Z,23.36
2018-06-11T17:18:40.990Z,23.30
2018-06-11T17:21:09.142Z,23.09
2018-06-11T17:23:36.822Z,23.07
2018-06-11T17:26:04.340Z,22.91
2018-06-11T17:28:31.961Z,22.98
2018-06-11T17:30:59.476Z,22.93
2018-06-11T17:33:27.176Z,22.86
2018-06-11T17:35:54.864Z,22.95
2018-06-11T17:38:22.902Z,22.70
2018-06-11T17:40:50.545Z,22.73
2018-06-11T17:43:19.007Z,22.90
2018-06-11T17:45:46.762Z,22.83
2018-06-11T17:48:14.453Z,22.81
2018-06-11T17:50:42.009Z,22.66
2018-06-11T17:53:09.729Z,22.37
2018-06-11T17:55:37.317Z,22.21
2018-06-11T17:58:05.093Z,22.26
2018-06-11T18:00:32.579Z,22.19
2018-06-11T18:03:00.318Z,21.92
2018-06-11T18:05:27.865Z,21.94
2018-06-11T18:07:55.498Z,21.94
2018-06-11T18:10:23.226Z,22.07
2018-06-11T18:12:50.835Z,21.75
2018-06-11T18:15:18.367Z,21.73
2018-06-11T18:17:46.705Z,21.90
2018-06-11T18:20:14.669Z,21.88
2018-06-11T18:22:42.238Z,21.92
2018-06-11T18:25:09.797Z,21.84
2018-06-11T18:27:37.367Z,21.58
2018-06-11T18:30:05.058Z,21.46
2018-06-11T18:32:32.634Z,21.38
2018-06-11T18:35:00.274Z,21.48
2018-06-11T18:37:27.955Z,21.23
2018-06-11T18:39:55.417Z,21.34
2018-06-11T18:42:22.876Z,21.32
2018-06-11T18:44:50.606Z,21.26
2018-06-11T18:47:18.795Z,21.29
2018-06-11T18:49:46.410Z,21.12
2018-06-11T18:52:14.116Z,20.84
2018-06-11T18:54:41.820Z,20.95
2018-06-11T18:57:09.701Z,20.73
2018-06-11T18:59:37.376Z,20.56
2018-06-11T19:02:04.809Z,20.63
2018-06-11T19:04:32.369Z,20.55
2018-06-11T19:07:00.002Z,20.66
2018-06-11T19:09:27.574Z,20.45
2018-06-11T19:11:55.003Z,20.51
2018-06-11T19:14:22.586Z,20.35
2018-06-11T19:16:50.683Z,20.17
2018-06-11T19:19:18.299Z,20.20
2018-06-11T19:21:46.668Z,20.25
2018-06-11T19:24:14.162Z,20.03
2018-06-11T19:26:42.648Z,19.98
2018-06-11T19:29:10.353Z,20.15
2018-06-11T19:31:38.218Z,19.76
2018-06-11T19:34:05.788Z,19.76
2018-06-11T19:36:33.466Z,19.58
2018-06-11T19:39:01.033Z,19.64
2018-06-11T19:41:28.565Z,19.46
2018-06-11T19:43:56.176Z,19.56
2018-06-11T19:46:24.101Z,19.45
2018-06-11T19:48:51.593Z,19.40
2018-06-11T19:51:19.292Z,19.14
2018-06-11T19:53:46.868Z,19.25
2018-06-11T19:56:14.438Z,19.06
2018-06-11T19:58:42.030Z,18.90
2018-06-11T20:01:09.624Z,18.94
2018-06-11T20:03:37.359Z,18.91
2018-06-11T20:06:04.772Z,18.89
2018-06-11T20:08:32.209Z,18.86
2018-06-11T20:10:59.589Z,18.74
2018-06-11T20:13:26.964Z,18.58
2018-06-11T20:15:54.479Z,18.50
2018-06-11T20:18:22.124Z,18.38
2018-06-11T20:20:49.625Z,18.19
2018-06-11T20:23:17.169Z,18.33
2018-06-11T20:25:44.702Z,18.31
2018-06-11T20:28:12.204Z,18.17
2018-06-11T20:30:39.850Z,18.10
2018-06-11T20:33:07.412Z,18.01
2018-06-11T20:35:34.821Z,17.86
2018-06-11T20:38:02.323Z,17.80
2018-06-11T20:40:29.810Z,17.75
2018-06-11T20:42:57.244Z,17.74
2018-06-11T20:45:24.683Z,17.66
2018-06-11T20:47:52.230Z,17.61
2018-06-11T20:50:19.881Z,17.54
2018-06-11T20:52:48.169Z,17.59
2018-06-11T20:55:15.784Z,17.47
2018-06-11T20:57:43.238Z,17.26
2018-06-11T21:00:10.639Z,17.33
2018-06-11T21:02:38.065Z,17.36
2018-06-11T21:05:05.741Z,17.20
2018-06-11T21:07:33.285Z,17.02
2018-06-11T21:10:00.707Z,17.04
2018-06-11T21:12:28.602Z,16.91
2018-06-11T21:14:56.183Z,16.87
2018-06-11T21:17:23.597Z,16.83
2018-06-11T21:19:51.326Z,16.91
2018-06-11T21:22:19.576Z,17.03
2018-06-11T21:24:47.216Z,16.81
2018-06-11T21:27:14.813Z,16.76
2018-06-11T21:29:42.338Z,16.74
2018-06-11T21:32:10.026Z,16.77
2018-06-11T21:34:37.533Z,16.83
2018-06-11T21:37:05.100Z,16.67
2018-06-11T21:39:33.939Z,16.73
2018-06-11T21:42:01.355Z,16.64
2018-06-11T21:44:28.910Z,16.55
2018-06-11T21:46:56.496Z,16.68
2018-06-11T21:49:24.633Z,16.64
2018-06-11T21:51:52.913Z,16.63
2018-06-11T21:54:20.414Z,16.51
2018-06-11T21:56:48.132Z,16.54
2018-06-11T21:59:16.113Z,16.46
2018-06-11T22:01:43.677Z,16.49
2018-06-11T22:04:11.963Z,16.41
2018-06-11T22:06:39.521Z,16.48
2018-06-11T22:09:07.918Z,16.40
2018-06-11T22:11:35.530Z,16.35
2018-06-11T22:14:03.230Z,16.37
2018-06-11T22:16:30.620Z,16.35
2018-06-11T22:18:58.101Z,16.24
2018-06-11T22:21:25.785Z,16.28
2018-06-11T22:23:53.173Z,16.31
2018-06-11T22:26:20.565Z,16.18
2018-06-11T22:28:47.945Z,16.24
2018-06-11T22:31:15.481Z,16.22
2018-06-11T22:33:43.002Z,16.15
2018-06-11T22:36:10.358Z,16.29
2018-06-11T22:38:37.780Z,16.29
2018-06-11T22:41:05.165Z,16.19
2018-06-11T22:43:32.556Z,16.18
2018-06-11T22:46:00.025Z,16.24
2018-06-11T22:48:28.088Z,16.15
2018-06-11T22:50:55.497Z,16.14
2018-06-11T22:53:22.863Z,16.10
2018-06-11T22:55:50.231Z,16.01
2018-06-11T22:58:17.644Z,16.04
2018-06-11T23:00:45.063Z,16.13
2018-06-11T23:03:12.485Z,16.12
2018-06-11T23:05:39.893Z,16.13
2018-06-11T23:08:07.392Z,16.05
2018-06-11T23:10:34.785Z,15.99
2018-06-11T23:13:02.237Z,16.04
2018-06-11T23:15:29.669Z,15.87
2018-06-11T23:17:57.083Z,15.81
2018-06-11T23:20:24.467Z,15.91
2018-06-11T23:22:51.808Z,15.96
2018-06-11T23:25:19.303Z,16.00
2018-06-11T23:27:46.705Z,15.90
2018-06-11T23:30:14.097Z,15.91
2018-06-11T23:32:41.705Z,15.85
2018-06-11T23:35:09.227Z,15.84
2018-06-11T23:37:36.632Z,15.87
2018-06-11T23:40:04.068Z,15.80
2018-06-11T23:42:32.209Z,15.85
2018-06-11T23:44:59.575Z,15.71
2018-06-11T23:47:27.021Z,15.74
2018-06-11T23:49:54.428Z,15.80
2018-06-11T23:52:21.908Z,15.84
2018-06-11T23:54:50.204Z,15.79
2018-06-11T23:57:17.745Z,15.67
2018-06-11T23:59:45.160Z,15.63
